sensor_id;sensor_type;location;lat;lon;timestamp;temperature;humidity
9157;DHT22;4613;48.392;9.998;2023-07-13T00:01:12;19.60;99.90
9157;DHT22;4613;48.392;9.998;2023-07-13T00:04:02;19.80;99.90
9157;DHT22;4613;48.392;9.998;2023-07-13T00:06:52;19.50;99.90
9157;DHT22;4613;48.392;9.998;2023-07-13T00:09:41;19.50;99.90
9157;DHT22;4613;48.392;9.998;2023-07-13T00:12:35;19.40;99.90
9157;DHT22;4613;48.392;9.998;2023-07-13T00:15:26;19.50;99.90
9157;DHT22;4613;48.392;9.998;2023-07-13T00:18:16;19.30;99.90
9157;DHT22;4613;48.392;9.998;2023-07-13T00:21:04;19.30;99.90
9157;DHT22;4613;48.392;9.998;2023-07-13T00:23:54;19.40;99.90
9157;DHT22;4613;48.392;9.998;2023-07-13T00:26:43;19.30;99.90
9157;DHT22;4613;48.392;9.998;2023-07-13T00:29:36;19.20;99.90
9157;DHT22;4613;48.392;9.998;2023-07-13T00:32:26;19.50;99.90
9157;DHT22;4613;48.392;9.998;2023-07-13T00:35:15;19.90;99.90
9157;DHT22;4613;48.392;9.998;2023-07-13T00:38:05;19.70;99.90
9157;DHT22;4613;48.392;9.998;2023-07-13T00:40:54;19.80;99.90
9157;DHT22;4613;48.392;9.998;2023-07-13T00:43:44;19.60;99.90
9157;DHT22;4613;48.392;9.998;2023-07-13T00:46:33;19.90;99.90
9157;DHT22;4613;48.392;9.998;2023-07-13T00:49:25;19.90;99.90
9157;DHT22;4613;48.392;9.998;2023-07-13T00:52:14;19.40;99.90
9157;DHT22;4613;48.392;9.998;2023-07-13T00:55:06;19.40;99.90
9157;DHT22;4613;48.392;9.998;2023-07-13T00:57:56;19.50;99.90
9157;DHT22;4613;48.392;9.998;2023-07-13T01:00:47;19.50;99.90
9157;DHT22;4613;48.392;9.998;2023-07-13T01:03:37;19.40;99.90
9157;DHT22;4613;48.392;9.998;2023-07-13T01:06:27;19.60;99.90
9157;DHT22;4613;48.392;9.998;2023-07-13T01:09:16;19.30;99.90
9157;DHT22;4613;48.392;9.998;2023-07-13T01:12:08;19.10;99.90
9157;DHT22;4613;48.392;9.998;2023-07-13T01:14:58;19.00;99.90
9157;DHT22;4613;48.392;9.998;2023-07-13T01:17:49;19.00;99.90
9157;DHT22;4613;48.392;9.998;2023-07-13T01:20:38;18.90;99.90
9157;DHT22;4613;48.392;9.998;2023-07-13T01:23:29;18.90;99.90
9157;DHT22;4613;48.392;9.998;2023-07-13T01:26:19;18.90;99.90
9157;DHT22;4613;48.392;9.998;2023-07-13T01:29:08;18.90;99.90
9157;DHT22;4613;48.392;9.998;2023-07-13T01:32:00;18.80;99.90
9157;DHT22;4613;48.392;9.998;2023-07-13T01:34:53;18.90;99.90
9157;DHT22;4613;48.392;9.998;2023-07-13T01:37:44;19.00;99.90
9157;DHT22;4613;48.392;9.998;2023-07-13T01:40:36;18.90;99.90
9157;DHT22;4613;48.392;9.998;2023-07-13T01:43:25;18.80;99.90
9157;DHT22;4613;48.392;9.998;2023-07-13T01:46:14;18.70;99.90
9157;DHT22;4613;48.392;9.998;2023-07-13T01:49:03;18.40;99.90
9157;DHT22;4613;48.392;9.998;2023-07-13T01:51:53;18.70;99.90
9157;DHT22;4613;48.392;9.998;2023-07-13T01:54:42;18.50;99.90
9157;DHT22;4613;48.392;9.998;2023-07-13T01:57:32;18.50;99.90
9157;DHT22;4613;48.392;9.998;2023-07-13T02:00:22;18.30;99.90
9157;DHT22;4613;48.392;9.998;2023-07-13T02:03:11;18.30;99.90
9157;DHT22;4613;48.392;9.998;2023-07-13T02:06:01;18.40;99.90
9157;DHT22;4613;48.392;9.998;2023-07-13T02:08:50;18.70;99.90
9157;DHT22;4613;48.392;9.998;2023-07-13T02:11:39;18.70;99.90
9157;DHT22;4613;48.392;9.998;2023-07-13T02:14:28;18.40;99.90
9157;DHT22;4613;48.392;9.998;2023-07-13T02:17:17;18.60;99.90
9157;DHT22;4613;48.392;9.998;2023-07-13T02:20:06;18.50;99.90
9157;DHT22;4613;48.392;9.998;2023-07-13T02:22:56;18.60;99.90
9157;DHT22;4613;48.392;9.998;2023-07-13T02:25:46;18.40;99.90
9157;DHT22;4613;48.392;9.998;2023-07-13T02:28:35;18.60;99.90
9157;DHT22;4613;48.392;9.998;2023-07-13T02:31:24;18.30;99.90
9157;DHT22;4613;48.392;9.998;2023-07-13T02:34:17;18.20;99.90
9157;DHT22;4613;48.392;9.998;2023-07-13T02:37:06;18.10;99.90
9157;DHT22;4613;48.392;9.998;2023-07-13T02:39:57;18.30;99.90
9157;DHT22;4613;48.392;9.998;2023-07-13T02:42:47;18.50;99.90
9157;DHT22;4613;48.392;9.998;2023-07-13T02:45:36;18.70;99.90
9157;DHT22;4613;48.392;9.998;2023-07-13T02:48:25;18.70;99.90
9157;DHT22;4613;48.392;9.998;2023-07-13T02:51:14;18.80;99.90
9157;DHT22;4613;48.392;9.998;2023-07-13T02:54:04;18.60;99.90
9157;DHT22;4613;48.392;9.998;2023-07-13T02:56:54;18.40;99.90
9157;DHT22;4613;48.392;9.998;2023-07-13T02:59:44;18.40;99.90
9157;DHT22;4613;48.392;9.998;2023-07-13T03:02:34;18.60;99.90
9157;DHT22;4613;48.392;9.998;2023-07-13T03:05:24;18.70;99.90
9157;DHT22;4613;48.392;9.998;2023-07-13T03:08:13;18.60;99.90
9157;DHT22;4613;48.392;9.998;2023-07-13T03:11:08;18.40;99.90
9157;DHT22;4613;48.392;9.998;2023-07-13T03:14:01;18.20;99.90
9157;DHT22;4613;48.392;9.998;2023-07-13T03:16:54;17.80;99.90
9157;DHT22;4613;48.392;9.998;2023-07-13T03:19:46;17.40;99.90
9157;DHT22;4613;48.392;9.998;2023-07-13T03:22:38;17.10;99.90
9157;DHT22;4613;48.392;9.998;2023-07-13T03:25:27;17.10;99.90
9157;DHT22;4613;48.392;9.998;2023-07-13T03:28:18;17.10;99.90
9157;DHT22;4613;48.392;9.998;2023-07-13T03:31:16;17.00;99.90
9157;DHT22;4613;48.392;9.998;2023-07-13T03:34:06;16.90;99.90
9157;DHT22;4613;48.392;9.998;2023-07-13T03:36:55;17.30;99.90
9157;DHT22;4613;48.392;9.998;2023-07-13T03:39:45;17.40;99.90
9157;DHT22;4613;48.392;9.998;2023-07-13T03:42:35;17.40;99.90
9157;DHT22;4613;48.392;9.998;2023-07-13T03:45:25;17.50;99.90
9157;DHT22;4613;48.392;9.998;2023-07-13T03:48:14;17.50;99.90
9157;DHT22;4613;48.392;9.998;2023-07-13T03:51:03;17.60;99.90
9157;DHT22;4613;48.392;9.998;2023-07-13T03:53:52;17.50;99.90
9157;DHT22;4613;48.392;9.998;2023-07-13T03:56:42;17.60;99.90
9157;DHT22;4613;48.392;9.998;2023-07-13T03:59:33;17.70;99.90
9157;DHT22;4613;48.392;9.998;2023-07-13T04:02:22;17.40;99.90
9157;DHT22;4613;48.392;9.998;2023-07-13T04:05:11;17.40;99.90
9157;DHT22;4613;48.392;9.998;2023-07-13T04:08:01;17.50;99.90
9157;DHT22;4613;48.392;9.998;2023-07-13T04:10:50;17.80;99.90
9157;DHT22;4613;48.392;9.998;2023-07-13T04:13:39;18.00;99.90
9157;DHT22;4613;48.392;9.998;2023-07-13T04:16:29;17.70;99.90
9157;DHT22;4613;48.392;9.998;2023-07-13T04:19:18;17.70;99.90
9157;DHT22;4613;48.392;9.998;2023-07-13T04:22:08;18.10;99.90
9157;DHT22;4613;48.392;9.998;2023-07-13T04:24:57;18.10;99.90
9157;DHT22;4613;48.392;9.998;2023-07-13T04:27:46;17.90;99.90
9157;DHT22;4613;48.392;9.998;2023-07-13T04:30:35;18.00;99.90
9157;DHT22;4613;48.392;9.998;2023-07-13T04:33:24;17.90;99.90
9157;DHT22;4613;48.392;9.998;2023-07-13T04:36:15;17.90;99.90
9157;DHT22;4613;48.392;9.998;2023-07-13T04:39:05;17.80;99.90
9157;DHT22;4613;48.392;9.998;2023-07-13T04:41:56;17.80;99.90
9157;DHT22;4613;48.392;9.998;2023-07-13T04:44:49;18.00;99.90
9157;DHT22;4613;48.392;9.998;2023-07-13T04:47:39;18.30;99.90
9157;DHT22;4613;48.392;9.998;2023-07-13T04:50:28;18.40;99.90
9157;DHT22;4613;48.392;9.998;2023-07-13T04:53:17;18.30;99.90
9157;DHT22;4613;48.392;9.998;2023-07-13T04:56:07;18.10;99.90
9157;DHT22;4613;48.392;9.998;2023-07-13T04:58:56;18.30;99.90
9157;DHT22;4613;48.392;9.998;2023-07-13T05:01:45;18.30;99.90
9157;DHT22;4613;48.392;9.998;2023-07-13T05:04:35;18.20;99.90
9157;DHT22;4613;48.392;9.998;2023-07-13T05:07:25;17.90;99.90
9157;DHT22;4613;48.392;9.998;2023-07-13T05:10:14;18.00;99.90
9157;DHT22;4613;48.392;9.998;2023-07-13T05:13:03;18.10;99.90
9157;DHT22;4613;48.392;9.998;2023-07-13T05:16:03;18.30;99.90
9157;DHT22;4613;48.392;9.998;2023-07-13T05:18:53;18.40;99.90
9157;DHT22;4613;48.392;9.998;2023-07-13T05:21:42;18.30;99.90
9157;DHT22;4613;48.392;9.998;2023-07-13T05:24:31;18.30;99.90
9157;DHT22;4613;48.392;9.998;2023-07-13T05:27:21;18.30;99.90
9157;DHT22;4613;48.392;9.998;2023-07-13T05:30:10;18.50;99.90
9157;DHT22;4613;48.392;9.998;2023-07-13T05:33:00;18.30;99.90
9157;DHT22;4613;48.392;9.998;2023-07-13T05:35:50;18.30;99.90
9157;DHT22;4613;48.392;9.998;2023-07-13T05:38:39;18.40;99.90
9157;DHT22;4613;48.392;9.998;2023-07-13T05:41:29;18.50;99.90
9157;DHT22;4613;48.392;9.998;2023-07-13T05:44:18;18.10;99.90
9157;DHT22;4613;48.392;9.998;2023-07-13T05:47:08;18.30;99.90
9157;DHT22;4613;48.392;9.998;2023-07-13T05:49:57;18.10;99.90
9157;DHT22;4613;48.392;9.998;2023-07-13T05:52:47;18.40;99.90
9157;DHT22;4613;48.392;9.998;2023-07-13T05:55:36;18.70;99.90
9157;DHT22;4613;48.392;9.998;2023-07-13T05:58:30;18.90;99.90
9157;DHT22;4613;48.392;9.998;2023-07-13T06:01:19;19.50;99.90
9157;DHT22;4613;48.392;9.998;2023-07-13T06:04:09;20.40;99.90
9157;DHT22;4613;48.392;9.998;2023-07-13T06:06:58;19.30;99.90
9157;DHT22;4613;48.392;9.998;2023-07-13T06:09:47;19.20;99.90
9157;DHT22;4613;48.392;9.998;2023-07-13T06:12:37;19.70;99.90
9157;DHT22;4613;48.392;9.998;2023-07-13T06:15:26;20.20;99.90
9157;DHT22;4613;48.392;9.998;2023-07-13T06:18:15;20.20;99.90
9157;DHT22;4613;48.392;9.998;2023-07-13T06:21:13;20.30;99.90
9157;DHT22;4613;48.392;9.998;2023-07-13T06:24:03;19.60;99.90
9157;DHT22;4613;48.392;9.998;2023-07-13T06:26:52;20.00;99.90
9157;DHT22;4613;48.392;9.998;2023-07-13T06:29:42;20.30;99.90
9157;DHT22;4613;48.392;9.998;2023-07-13T06:32:34;20.80;99.90
9157;DHT22;4613;48.392;9.998;2023-07-13T06:35:23;20.30;99.90
9157;DHT22;4613;48.392;9.998;2023-07-13T06:38:12;20.30;99.90
9157;DHT22;4613;48.392;9.998;2023-07-13T06:41:01;20.30;99.90
9157;DHT22;4613;48.392;9.998;2023-07-13T06:43:51;20.00;99.90
9157;DHT22;4613;48.392;9.998;2023-07-13T06:46:40;20.30;99.90
9157;DHT22;4613;48.392;9.998;2023-07-13T06:49:29;19.60;99.90
9157;DHT22;4613;48.392;9.998;2023-07-13T06:52:20;19.90;99.90
9157;DHT22;4613;48.392;9.998;2023-07-13T06:55:09;20.00;99.90
9157;DHT22;4613;48.392;9.998;2023-07-13T06:57:58;20.10;99.90
9157;DHT22;4613;48.392;9.998;2023-07-13T07:00:50;20.10;99.90
9157;DHT22;4613;48.392;9.998;2023-07-13T07:03:41;20.20;99.90
9157;DHT22;4613;48.392;9.998;2023-07-13T07:06:30;19.80;99.90
9157;DHT22;4613;48.392;9.998;2023-07-13T07:09:19;19.50;99.90
9157;DHT22;4613;48.392;9.998;2023-07-13T07:12:08;19.20;99.90
9157;DHT22;4613;48.392;9.998;2023-07-13T07:14:58;19.60;99.90
9157;DHT22;4613;48.392;9.998;2023-07-13T07:17:47;19.90;99.90
9157;DHT22;4613;48.392;9.998;2023-07-13T07:20:36;20.60;99.90
9157;DHT22;4613;48.392;9.998;2023-07-13T07:23:25;20.10;99.90
9157;DHT22;4613;48.392;9.998;2023-07-13T07:26:15;20.50;99.90
9157;DHT22;4613;48.392;9.998;2023-07-13T07:29:04;20.80;99.90
9157;DHT22;4613;48.392;9.998;2023-07-13T07:31:53;20.80;99.90
9157;DHT22;4613;48.392;9.998;2023-07-13T07:34:43;21.60;99.90
9157;DHT22;4613;48.392;9.998;2023-07-13T07:37:32;21.40;99.90
9157;DHT22;4613;48.392;9.998;2023-07-13T07:40:21;21.40;99.90
9157;DHT22;4613;48.392;9.998;2023-07-13T07:43:12;21.00;99.90
9157;DHT22;4613;48.392;9.998;2023-07-13T07:46:02;20.90;99.90
9157;DHT22;4613;48.392;9.998;2023-07-13T07:48:51;20.80;99.90
9157;DHT22;4613;48.392;9.998;2023-07-13T07:51:41;20.00;99.90
9157;DHT22;4613;48.392;9.998;2023-07-13T07:54:30;19.90;99.90
9157;DHT22;4613;48.392;9.998;2023-07-13T07:57:19;19.90;99.90
9157;DHT22;4613;48.392;9.998;2023-07-13T08:00:09;19.80;99.90
9157;DHT22;4613;48.392;9.998;2023-07-13T08:03:03;20.20;99.90
9157;DHT22;4613;48.392;9.998;2023-07-13T08:05:55;20.60;99.90
9157;DHT22;4613;48.392;9.998;2023-07-13T08:08:44;19.90;99.90
9157;DHT22;4613;48.392;9.998;2023-07-13T08:11:33;20.40;99.90
9157;DHT22;4613;48.392;9.998;2023-07-13T08:14:23;19.90;99.90
9157;DHT22;4613;48.392;9.998;2023-07-13T08:17:11;20.30;99.90
9157;DHT22;4613;48.392;9.998;2023-07-13T08:20:01;21.40;99.90
9157;DHT22;4613;48.392;9.998;2023-07-13T08:22:50;20.80;99.90
9157;DHT22;4613;48.392;9.998;2023-07-13T08:25:39;20.00;99.90
9157;DHT22;4613;48.392;9.998;2023-07-13T08:28:29;20.70;99.90
9157;DHT22;4613;48.392;9.998;2023-07-13T08:31:18;21.40;99.90
9157;DHT22;4613;48.392;9.998;2023-07-13T08:34:07;20.80;99.90
9157;DHT22;4613;48.392;9.998;2023-07-13T08:36:57;20.60;99.90
9157;DHT22;4613;48.392;9.998;2023-07-13T08:39:46;20.70;99.90
9157;DHT22;4613;48.392;9.998;2023-07-13T08:42:44;20.50;99.90
9157;DHT22;4613;48.392;9.998;2023-07-13T08:45:49;20.50;99.90
9157;DHT22;4613;48.392;9.998;2023-07-13T08:48:48;20.00;99.90
9157;DHT22;4613;48.392;9.998;2023-07-13T08:51:56;20.30;99.90
9157;DHT22;4613;48.392;9.998;2023-07-13T08:54:50;21.50;99.90
9157;DHT22;4613;48.392;9.998;2023-07-13T08:57:42;21.30;99.90
9157;DHT22;4613;48.392;9.998;2023-07-13T09:00:39;21.10;99.90
9157;DHT22;4613;48.392;9.998;2023-07-13T09:03:40;21.30;99.90
9157;DHT22;4613;48.392;9.998;2023-07-13T09:07:06;21.60;99.90
9157;DHT22;4613;48.392;9.998;2023-07-13T09:10:15;21.80;99.90
9157;DHT22;4613;48.392;9.998;2023-07-13T09:16:14;20.80;99.90
9157;DHT22;4613;48.392;9.998;2023-07-13T09:19:06;21.30;99.90
9157;DHT22;4613;48.392;9.998;2023-07-13T09:21:56;22.10;99.90
9157;DHT22;4613;48.392;9.998;2023-07-13T09:24:53;21.10;99.90
9157;DHT22;4613;48.392;9.998;2023-07-13T09:27:45;20.70;99.90
9157;DHT22;4613;48.392;9.998;2023-07-13T09:33:56;21.80;99.90
9157;DHT22;4613;48.392;9.998;2023-07-13T09:36:45;22.80;99.90
9157;DHT22;4613;48.392;9.998;2023-07-13T09:39:38;22.70;99.90
9157;DHT22;4613;48.392;9.998;2023-07-13T09:42:28;22.50;99.90
9157;DHT22;4613;48.392;9.998;2023-07-13T09:45:27;22.60;99.90
9157;DHT22;4613;48.392;9.998;2023-07-13T09:48:18;22.60;99.90
9157;DHT22;4613;48.392;9.998;2023-07-13T09:51:13;22.60;99.90
9157;DHT22;4613;48.392;9.998;2023-07-13T09:54:04;22.70;99.90
9157;DHT22;4613;48.392;9.998;2023-07-13T09:56:58;22.20;99.90
9157;DHT22;4613;48.392;9.998;2023-07-13T09:59:50;22.50;99.90
9157;DHT22;4613;48.392;9.998;2023-07-13T10:02:40;22.30;99.90
9157;DHT22;4613;48.392;9.998;2023-07-13T10:05:41;22.30;99.90
9157;DHT22;4613;48.392;9.998;2023-07-13T10:08:31;22.50;99.90
9157;DHT22;4613;48.392;9.998;2023-07-13T10:11:28;21.70;99.90
9157;DHT22;4613;48.392;9.998;2023-07-13T10:14:22;21.80;99.90
9157;DHT22;4613;48.392;9.998;2023-07-13T10:17:16;22.00;99.90
9157;DHT22;4613;48.392;9.998;2023-07-13T10:20:07;22.90;99.90
9157;DHT22;4613;48.392;9.998;2023-07-13T10:23:15;23.70;99.90
9157;DHT22;4613;48.392;9.998;2023-07-13T10:26:21;23.70;99.90
9157;DHT22;4613;48.392;9.998;2023-07-13T10:29:14;22.70;99.90
9157;DHT22;4613;48.392;9.998;2023-07-13T10:32:12;22.20;99.90
9157;DHT22;4613;48.392;9.998;2023-07-13T10:35:01;22.00;99.90
9157;DHT22;4613;48.392;9.998;2023-07-13T10:37:57;23.50;99.90
9157;DHT22;4613;48.392;9.998;2023-07-13T10:41:05;24.30;99.90
9157;DHT22;4613;48.392;9.998;2023-07-13T10:43:56;23.10;99.90
9157;DHT22;4613;48.392;9.998;2023-07-13T10:46:48;23.20;99.90
9157;DHT22;4613;48.392;9.998;2023-07-13T10:49:37;24.20;99.90
9157;DHT22;4613;48.392;9.998;2023-07-13T10:52:41;24.60;99.90
9157;DHT22;4613;48.392;9.998;2023-07-13T10:55:33;23.00;99.90
9157;DHT22;4613;48.392;9.998;2023-07-13T10:59:09;23.10;99.90
9157;DHT22;4613;48.392;9.998;2023-07-13T11:02:21;24.10;99.90
9157;DHT22;4613;48.392;9.998;2023-07-13T11:05:26;23.50;99.90
9157;DHT22;4613;48.392;9.998;2023-07-13T11:08:33;23.20;99.90
9157;DHT22;4613;48.392;9.998;2023-07-13T11:26:02;23.30;99.90
9157;DHT22;4613;48.392;9.998;2023-07-13T11:28:52;23.30;99.90
9157;DHT22;4613;48.392;9.998;2023-07-13T11:31:42;23.70;99.90
9157;DHT22;4613;48.392;9.998;2023-07-13T11:34:38;24.20;99.90
9157;DHT22;4613;48.392;9.998;2023-07-13T11:37:29;24.10;99.90
9157;DHT22;4613;48.392;9.998;2023-07-13T11:40:19;23.80;99.90
9157;DHT22;4613;48.392;9.998;2023-07-13T11:43:14;24.10;99.90
9157;DHT22;4613;48.392;9.998;2023-07-13T11:46:33;23.30;99.90
9157;DHT22;4613;48.392;9.998;2023-07-13T11:49:24;23.30;99.90
9157;DHT22;4613;48.392;9.998;2023-07-13T11:52:19;23.90;99.90
9157;DHT22;4613;48.392;9.998;2023-07-13T11:55:16;24.00;99.90
9157;DHT22;4613;48.392;9.998;2023-07-13T11:58:10;23.20;99.90
9157;DHT22;4613;48.392;9.998;2023-07-13T12:01:02;23.00;99.90
9157;DHT22;4613;48.392;9.998;2023-07-13T12:03:54;23.20;99.90
9157;DHT22;4613;48.392;9.998;2023-07-13T12:06:44;23.30;99.90
9157;DHT22;4613;48.392;9.998;2023-07-13T12:09:34;23.00;99.90
9157;DHT22;4613;48.392;9.998;2023-07-13T12:12:28;22.90;99.90
9157;DHT22;4613;48.392;9.998;2023-07-13T12:15:19;22.60;99.90
9157;DHT22;4613;48.392;9.998;2023-07-13T12:18:30;22.40;99.90
9157;DHT22;4613;48.392;9.998;2023-07-13T12:21:23;22.20;99.90
9157;DHT22;4613;48.392;9.998;2023-07-13T12:24:19;22.90;99.90
9157;DHT22;4613;48.392;9.998;2023-07-13T12:27:25;23.00;99.90
9157;DHT22;4613;48.392;9.998;2023-07-13T12:30:28;23.00;99.90
9157;DHT22;4613;48.392;9.998;2023-07-13T12:33:20;23.30;99.90
9157;DHT22;4613;48.392;9.998;2023-07-13T12:36:11;23.30;99.90
9157;DHT22;4613;48.392;9.998;2023-07-13T12:42:24;23.70;99.90
9157;DHT22;4613;48.392;9.998;2023-07-13T12:48:20;23.90;99.90
9157;DHT22;4613;48.392;9.998;2023-07-13T12:51:12;24.20;99.90
9157;DHT22;4613;48.392;9.998;2023-07-13T12:54:13;23.30;99.90
9157;DHT22;4613;48.392;9.998;2023-07-13T12:57:04;23.60;99.90
9157;DHT22;4613;48.392;9.998;2023-07-13T12:59:56;23.40;99.90
9157;DHT22;4613;48.392;9.998;2023-07-13T13:02:45;23.50;99.90
9157;DHT22;4613;48.392;9.998;2023-07-13T13:05:34;23.60;99.90
9157;DHT22;4613;48.392;9.998;2023-07-13T13:08:24;23.30;99.90
9157;DHT22;4613;48.392;9.998;2023-07-13T13:11:17;23.70;99.90
9157;DHT22;4613;48.392;9.998;2023-07-13T13:14:06;23.30;99.90
9157;DHT22;4613;48.392;9.998;2023-07-13T13:16:59;23.10;99.90
9157;DHT22;4613;48.392;9.998;2023-07-13T13:19:49;23.60;99.90
9157;DHT22;4613;48.392;9.998;2023-07-13T13:22:39;23.70;99.90
9157;DHT22;4613;48.392;9.998;2023-07-13T13:25:28;24.10;99.90
9157;DHT22;4613;48.392;9.998;2023-07-13T13:28:19;24.10;99.90
9157;DHT22;4613;48.392;9.998;2023-07-13T13:31:10;24.30;99.90
9157;DHT22;4613;48.392;9.998;2023-07-13T13:34:01;24.10;98.80
9157;DHT22;4613;48.392;9.998;2023-07-13T13:36:54;23.90;98.80
9157;DHT22;4613;48.392;9.998;2023-07-13T13:39:44;23.80;99.00
9157;DHT22;4613;48.392;9.998;2023-07-13T13:42:33;23.70;98.80
9157;DHT22;4613;48.392;9.998;2023-07-13T13:45:23;24.20;98.60
9157;DHT22;4613;48.392;9.998;2023-07-13T13:48:19;24.60;98.30
9157;DHT22;4613;48.392;9.998;2023-07-13T13:51:20;24.20;98.00
9157;DHT22;4613;48.392;9.998;2023-07-13T13:54:15;24.30;97.40
9157;DHT22;4613;48.392;9.998;2023-07-13T13:57:05;24.40;97.70
9157;DHT22;4613;48.392;9.998;2023-07-13T13:59:54;24.80;97.80
9157;DHT22;4613;48.392;9.998;2023-07-13T14:02:46;24.20;97.00
9157;DHT22;4613;48.392;9.998;2023-07-13T14:05:41;24.40;97.50
9157;DHT22;4613;48.392;9.998;2023-07-13T14:08:30;24.00;98.30
9157;DHT22;4613;48.392;9.998;2023-07-13T14:11:21;24.00;98.20
9157;DHT22;4613;48.392;9.998;2023-07-13T14:14:20;24.10;98.30
9157;DHT22;4613;48.392;9.998;2023-07-13T14:17:21;23.80;98.60
9157;DHT22;4613;48.392;9.998;2023-07-13T14:20:12;24.10;98.70
9157;DHT22;4613;48.392;9.998;2023-07-13T14:23:01;24.40;98.80
9157;DHT22;4613;48.392;9.998;2023-07-13T14:25:51;23.90;99.00
9157;DHT22;4613;48.392;9.998;2023-07-13T14:28:43;24.00;98.80
9157;DHT22;4613;48.392;9.998;2023-07-13T14:31:33;24.40;99.00
9157;DHT22;4613;48.392;9.998;2023-07-13T14:34:22;24.20;98.50
9157;DHT22;4613;48.392;9.998;2023-07-13T14:37:14;23.70;98.40
9157;DHT22;4613;48.392;9.998;2023-07-13T14:43:01;23.80;99.20
9157;DHT22;4613;48.392;9.998;2023-07-13T14:45:51;23.50;98.50
9157;DHT22;4613;48.392;9.998;2023-07-13T14:48:41;23.60;99.30
9157;DHT22;4613;48.392;9.998;2023-07-13T14:51:33;23.70;99.20
9157;DHT22;4613;48.392;9.998;2023-07-13T14:54:23;23.80;99.00
9157;DHT22;4613;48.392;9.998;2023-07-13T14:57:15;23.80;98.70
9157;DHT22;4613;48.392;9.998;2023-07-13T15:03:02;24.70;98.00
9157;DHT22;4613;48.392;9.998;2023-07-13T15:05:51;24.70;98.40
9157;DHT22;4613;48.392;9.998;2023-07-13T15:08:42;25.10;98.00
9157;DHT22;4613;48.392;9.998;2023-07-13T15:11:31;24.80;96.70
9157;DHT22;4613;48.392;9.998;2023-07-13T15:14:21;25.00;97.10
9157;DHT22;4613;48.392;9.998;2023-07-13T15:17:36;24.80;96.50
9157;DHT22;4613;48.392;9.998;2023-07-13T15:20:33;24.70;96.10
9157;DHT22;4613;48.392;9.998;2023-07-13T15:23:24;24.10;96.60
9157;DHT22;4613;48.392;9.998;2023-07-13T15:26:16;23.90;97.50
9157;DHT22;4613;48.392;9.998;2023-07-13T15:29:06;23.90;97.80
9157;DHT22;4613;48.392;9.998;2023-07-13T15:31:55;24.20;97.80
9157;DHT22;4613;48.392;9.998;2023-07-13T15:34:44;23.80;98.10
9157;DHT22;4613;48.392;9.998;2023-07-13T15:37:35;23.80;98.60
9157;DHT22;4613;48.392;9.998;2023-07-13T15:40:24;23.70;98.20
9157;DHT22;4613;48.392;9.998;2023-07-13T15:43:15;23.90;98.20
9157;DHT22;4613;48.392;9.998;2023-07-13T15:46:04;24.10;98.40
9157;DHT22;4613;48.392;9.998;2023-07-13T15:48:54;24.00;98.20
9157;DHT22;4613;48.392;9.998;2023-07-13T15:51:46;24.10;98.50
9157;DHT22;4613;48.392;9.998;2023-07-13T15:54:36;23.80;98.70
9157;DHT22;4613;48.392;9.998;2023-07-13T15:57:27;23.60;98.30
9157;DHT22;4613;48.392;9.998;2023-07-13T16:00:23;23.80;98.30
9157;DHT22;4613;48.392;9.998;2023-07-13T16:03:13;24.50;94.70
9157;DHT22;4613;48.392;9.998;2023-07-13T16:06:10;24.70;93.50
9157;DHT22;4613;48.392;9.998;2023-07-13T16:09:00;24.80;92.90
9157;DHT22;4613;48.392;9.998;2023-07-13T16:11:50;24.80;91.70
9157;DHT22;4613;48.392;9.998;2023-07-13T16:14:40;24.90;92.10
9157;DHT22;4613;48.392;9.998;2023-07-13T16:17:29;25.20;90.70
9157;DHT22;4613;48.392;9.998;2023-07-13T16:20:19;25.20;89.80
9157;DHT22;4613;48.392;9.998;2023-07-13T16:23:13;25.40;89.40
9157;DHT22;4613;48.392;9.998;2023-07-13T16:26:04;25.20;89.80
9157;DHT22;4613;48.392;9.998;2023-07-13T16:29:02;25.10;90.10
9157;DHT22;4613;48.392;9.998;2023-07-13T16:31:59;25.30;90.20
9157;DHT22;4613;48.392;9.998;2023-07-13T16:34:48;25.30;89.50
9157;DHT22;4613;48.392;9.998;2023-07-13T16:37:38;25.30;89.80
9157;DHT22;4613;48.392;9.998;2023-07-13T16:40:30;25.40;90.50
9157;DHT22;4613;48.392;9.998;2023-07-13T16:43:20;25.30;90.70
9157;DHT22;4613;48.392;9.998;2023-07-13T16:46:12;25.30;90.10
9157;DHT22;4613;48.392;9.998;2023-07-13T16:49:10;25.40;90.50
9157;DHT22;4613;48.392;9.998;2023-07-13T16:52:08;25.30;90.30
9157;DHT22;4613;48.392;9.998;2023-07-13T16:54:58;25.10;89.90
9157;DHT22;4613;48.392;9.998;2023-07-13T16:57:48;25.10;90.30
9157;DHT22;4613;48.392;9.998;2023-07-13T17:00:37;25.10;89.70
9157;DHT22;4613;48.392;9.998;2023-07-13T17:03:26;24.80;88.90
9157;DHT22;4613;48.392;9.998;2023-07-13T17:06:23;24.80;89.60
9157;DHT22;4613;48.392;9.998;2023-07-13T17:09:13;24.80;88.80
9157;DHT22;4613;48.392;9.998;2023-07-13T17:12:02;24.80;88.40
9157;DHT22;4613;48.392;9.998;2023-07-13T17:14:52;24.80;89.20
9157;DHT22;4613;48.392;9.998;2023-07-13T17:17:44;24.70;89.30
9157;DHT22;4613;48.392;9.998;2023-07-13T17:20:35;24.70;88.60
9157;DHT22;4613;48.392;9.998;2023-07-13T17:23:31;24.60;87.30
9157;DHT22;4613;48.392;9.998;2023-07-13T17:26:23;24.70;88.20
9157;DHT22;4613;48.392;9.998;2023-07-13T17:29:12;24.60;87.90
9157;DHT22;4613;48.392;9.998;2023-07-13T17:32:03;24.60;88.60
9157;DHT22;4613;48.392;9.998;2023-07-13T17:34:52;24.50;87.90
9157;DHT22;4613;48.392;9.998;2023-07-13T17:37:41;24.30;88.50
9157;DHT22;4613;48.392;9.998;2023-07-13T17:40:30;24.40;88.60
9157;DHT22;4613;48.392;9.998;2023-07-13T17:43:21;24.40;88.00
9157;DHT22;4613;48.392;9.998;2023-07-13T17:46:22;24.30;87.70
9157;DHT22;4613;48.392;9.998;2023-07-13T17:49:19;24.40;89.90
9157;DHT22;4613;48.392;9.998;2023-07-13T17:52:09;24.40;88.30
9157;DHT22;4613;48.392;9.998;2023-07-13T17:55:04;24.20;87.30
9157;DHT22;4613;48.392;9.998;2023-07-13T17:57:57;24.10;87.60
9157;DHT22;4613;48.392;9.998;2023-07-13T18:00:47;24.00;87.30
9157;DHT22;4613;48.392;9.998;2023-07-13T18:03:40;24.10;88.00
9157;DHT22;4613;48.392;9.998;2023-07-13T18:06:35;24.10;87.50
9157;DHT22;4613;48.392;9.998;2023-07-13T18:09:27;24.00;87.60
9157;DHT22;4613;48.392;9.998;2023-07-13T18:12:16;24.00;87.80
9157;DHT22;4613;48.392;9.998;2023-07-13T18:15:06;23.90;87.20
9157;DHT22;4613;48.392;9.998;2023-07-13T18:17:58;24.00;87.80
9157;DHT22;4613;48.392;9.998;2023-07-13T18:20:48;24.00;87.80
9157;DHT22;4613;48.392;9.998;2023-07-13T18:23:37;24.00;87.80
9157;DHT22;4613;48.392;9.998;2023-07-13T18:26:27;24.00;87.70
9157;DHT22;4613;48.392;9.998;2023-07-13T18:29:16;23.90;87.70
9157;DHT22;4613;48.392;9.998;2023-07-13T18:32:09;23.90;87.50
9157;DHT22;4613;48.392;9.998;2023-07-13T18:35:03;23.90;87.70
9157;DHT22;4613;48.392;9.998;2023-07-13T18:37:52;23.80;88.00
9157;DHT22;4613;48.392;9.998;2023-07-13T18:40:42;23.80;89.00
9157;DHT22;4613;48.392;9.998;2023-07-13T18:43:31;23.70;88.00
9157;DHT22;4613;48.392;9.998;2023-07-13T18:46:23;23.60;88.70
9157;DHT22;4613;48.392;9.998;2023-07-13T18:49:13;23.60;88.60
9157;DHT22;4613;48.392;9.998;2023-07-13T18:52:03;23.60;88.90
9157;DHT22;4613;48.392;9.998;2023-07-13T18:54:53;23.50;89.00
9157;DHT22;4613;48.392;9.998;2023-07-13T18:57:42;23.50;89.40
9157;DHT22;4613;48.392;9.998;2023-07-13T19:00:34;23.40;88.70
9157;DHT22;4613;48.392;9.998;2023-07-13T19:03:28;23.30;89.10
9157;DHT22;4613;48.392;9.998;2023-07-13T19:06:20;23.30;89.90
9157;DHT22;4613;48.392;9.998;2023-07-13T19:09:11;23.30;89.30
9157;DHT22;4613;48.392;9.998;2023-07-13T19:12:01;23.20;90.20
9157;DHT22;4613;48.392;9.998;2023-07-13T19:14:50;23.20;90.00